Alexander von Humboldt II — DDKK2 — position and weather

sailwx.info

Track history (hours):
 
Tides and Currents Weather Stations Pressure Air Temp Water Temp Dewpoint Dewpoint Depression Visibility Wind Speed Wind Dir Waves Ship Positions

Alexander von Humboldt II

Ship's website: https://www.alex-2.de/en/

Last reported at 2019-Jun-13 02:41 UTC. Time now 2019-Jun-16 01:33 UTC.
Position N 60°17' E 019°03'.

Length 65 m; draft 4.7 m.

Type: Sailing vessel. MMSI: 218768000.

Date/timePositionNaut miles runAvg speedWind from/ knotsBaromVisibWave heightAir tempDewpointWater temp
2019-Jun-13 02:41N 60°17' E 019°03'2012.0
2019-Jun-13 01:00N 60°00' E 019°24'3 1.5 090 / 91020.010.8 13.5 5.711.0
2019-Jun-12 22:49N 60°03' E 019°21'1 3.8
2019-Jun-12 22:29N 60°02' E 019°23'2 4.0
2019-Jun-12 21:56N 60°00' E 019°26'6 4.4
2019-Jun-12 20:28N 59°55' E 019°34'2 4.2
2019-Jun-12 19:59N 59°54' E 019°36'3 4.5
2019-Jun-12 19:22N 59°51' E 019°40'2 4.9
2019-Jun-12 18:57N 59°50' E 019°42'2 4.8
2019-Jun-12 18:30N 59°48' E 019°45'3 5.4
2019-Jun-12 18:00N 59°46' E 019°49'3 5.3
2019-Jun-12 17:26N 59°45' E 019°54'2 5.4
2019-Jun-12 17:00N 59°43' E 019°57'3 5.0
2019-Jun-12 16:28N 59°41' E 020°02'26 5.6
2019-Jun-12 11:46N 59°36' E 020°52'2 7.4
2019-Jun-12 11:30N 59°36' E 020°56'4 8.3
2019-Jun-12 11:00N 59°35' E 021°04'4 8.3
2019-Jun-12 10:30N 59°35' E 021°12'4 7.8
2019-Jun-12 10:00N 59°34' E 021°20'4 7.2
2019-Jun-12 09:30N 59°33' E 021°27'4 7.4
2019-Jun-12 09:00N 59°33' E 021°34'4 7.5
2019-Jun-12 08:30N 59°33' E 021°41'4 7.9
2019-Jun-12 08:00N 59°32' E 021°49'4 7.3
2019-Jun-12 07:30N 59°32' E 021°56'4 6.8
2019-Jun-12 06:57N 59°33' E 022°04'3 7.2
2019-Jun-12 06:30N 59°33' E 022°10'4 7.1
2019-Jun-12 06:00N 59°34' E 022°17'3 6.4
2019-Jun-12 05:30N 59°35' E 022°23'4 7.1
2019-Jun-12 05:00N 59°35' E 022°30'3 6.7
2019-Jun-12 04:30N 59°36' E 022°36'3 6.9
2019-Jun-12 04:00N 59°36' E 022°43'4 7.3
2019-Jun-12 03:31N 59°37' E 022°50'4 7.5
2019-Jun-12 03:00N 59°38' E 022°57'7 7.5
2019-Jun-12 02:00N 59°39' E 023°12'4 7.6
2019-Jun-12 01:30N 59°40' E 023°19'4 7.2
2019-Jun-12 01:00N 59°40' E 023°26'3 6.9
2019-Jun-12 00:30N 59°41' E 023°33'3 6.6
2019-Jun-12 00:00N 59°42' E 023°39'3 5.5
2019-Jun-11 23:30N 59°43' E 023°45'3 5.6
2019-Jun-11 23:00N 59°43' E 023°50'2 4.6
2019-Jun-11 22:30N 59°44' E 023°54'3 5.2
2019-Jun-11 22:00N 59°45' E 023°59'3 5.0
2019-Jun-11 21:30N 59°45' E 024°04'2 4.7
2019-Jun-11 20:59N 59°46' E 024°09'2 3.9
2019-Jun-11 20:30N 59°46' E 024°13'2 3.6
2019-Jun-11 19:58N 59°47' E 024°16'1 3.1
2019-Jun-11 19:30N 59°47' E 024°19'1 2.3
2019-Jun-11 19:00N 59°48' E 024°21'1 1.7
2019-Jun-11 18:31N 59°48' E 024°23'1 1.6
2019-Jun-11 18:01N 59°48' E 024°24'1 2.2
2019-Jun-11 17:31N 59°48' E 024°26'1 2.6
2019-Jun-11 17:00N 59°49' E 024°29'1 2.6
2019-Jun-11 16:31N 59°49' E 024°31'1 2.6
2019-Jun-11 16:00N 59°49' E 024°34'4 7.9
2019-Jun-11 15:31N 59°50' E 024°42'4 8.3
2019-Jun-11 15:01N 59°51' E 024°50'4 8.3
2019-Jun-11 14:30N 59°52' E 024°58'4 8.3
2019-Jun-11 14:00N 59°53' E 025°06'4 8.4
2019-Jun-11 13:30N 59°53' E 025°14'4 8.5
2019-Jun-11 13:00N 59°54' E 025°23'4 8.5
2019-Jun-11 12:30N 59°55' E 025°31'4 8.4
2019-Jun-11 11:59N 59°55' E 025°40'4 8.3
2019-Jun-11 11:30N 59°56' E 025°47'4 8.3
2019-Jun-11 11:00N 59°57' E 025°55'5 8.3
2019-Jun-11 10:22N 59°58' E 026°06'3 8.2
2019-Jun-11 09:58N 59°59' E 026°12'4 7.9
2019-Jun-11 09:31N 59°60' E 026°19'4 7.8
2019-Jun-11 09:00N 60°01' E 026°27'4 7.6
2019-Jun-11 08:31N 60°02' E 026°34'4 7.6
2019-Jun-11 08:00N 60°01' E 026°42'4 7.8
2019-Jun-11 07:30N 60°01' E 026°49'4 7.8
2019-Jun-11 07:00N 59°60' E 026°57'4 7.7
2019-Jun-11 06:31N 59°60' E 027°05'4 7.3
2019-Jun-11 06:00N 60°02' E 027°11'4 7.3
2019-Jun-11 05:30N 60°03' E 027°17'3 5.2
2019-Jun-11 05:00N 60°05' E 027°21'2 4.5
2019-Jun-11 04:30N 60°06' E 027°25'4 7.5
2019-Jun-11 04:00N 60°08' E 027°32'4 7.4
2019-Jun-11 03:30N 60°10' E 027°38'4 7.4
2019-Jun-11 03:01N 60°12' E 027°44'3 7.0
2019-Jun-11 02:30N 60°11' E 027°51'4 7.3
2019-Jun-11 02:00N 60°11' E 027°58'4 7.1
2019-Jun-11 01:30N 60°10' E 028°05'4 7.0
2019-Jun-11 01:00N 60°09' E 028°12'3 6.7
2019-Jun-11 00:30N 60°08' E 028°18'3 6.8
2019-Jun-11 00:00N 60°05' E 028°24'3 6.8
2019-Jun-10 23:30N 60°04' E 028°29'3 6.7
2019-Jun-10 23:00N 60°03' E 028°36'3 6.6
2019-Jun-10 22:30N 60°03' E 028°43'3 6.2
2019-Jun-10 22:00N 60°03' E 028°49'3 6.3
2019-Jun-10 21:31N 60°03' E 028°55'3 6.5
2019-Jun-10 21:01N 60°02' E 029°02'3 6.5
2019-Jun-10 20:31N 60°02' E 029°08'3 6.4
2019-Jun-10 20:01N 60°02' E 029°15'3 6.5
2019-Jun-10 19:30N 60°02' E 029°21'9 7.0
2019-Jun-10 18:10N 59°60' E 029°39'3 9.8
2019-Jun-10 17:52N 59°59' E 029°45'3 9.5
2019-Jun-10 17:30N 59°57' E 029°51'5 9.6
2019-Jun-10 17:00N 59°55' E 029°60'5 9.4
2019-Jun-10 16:30N 59°54' E 030°08'3 6.0
2019-Jun-10 16:00N 59°55' E 030°14'2 3.3
2019-Jun-10 15:29N 59°56' E 030°16'0 0.0
2019-Jun-10 14:59N 59°56' E 030°16'0 0.0
2019-Jun-10 14:29N 59°56' E 030°16'0 0.0
2019-Jun-10 13:59N 59°56' E 030°16'0 0.0
2019-Jun-10 13:29N 59°56' E 030°16'0 0.0
2019-Jun-10 12:59N 59°56' E 030°16'0 0.0
2019-Jun-10 12:29N 59°56' E 030°16'0 0.0
2019-Jun-10 11:59N 59°56' E 030°16'0 0.0
2019-Jun-10 11:29N 59°56' E 030°16'0 0.0
2019-Jun-10 10:59N 59°56' E 030°16'0 0.0
2019-Jun-10 10:29N 59°56' E 030°16'0 0.0
2019-Jun-10 09:59N 59°56' E 030°16'0 0.0
2019-Jun-10 09:29N 59°56' E 030°16'0 0.0
2019-Jun-10 08:59N 59°56' E 030°16'0 0.0
2019-Jun-10 08:29N 59°56' E 030°16'0 0.0
2019-Jun-10 07:59N 59°56' E 030°16'0 0.0
2019-Jun-10 07:29N 59°56' E 030°16'0 0.0
2019-Jun-10 06:59N 59°56' E 030°16'0 0.0
2019-Jun-10 06:29N 59°56' E 030°16'0 0.0
2019-Jun-10 05:59N 59°56' E 030°16'0 0.0
2019-Jun-10 05:29N 59°56' E 030°16'0 0.0
2019-Jun-10 04:59N 59°56' E 030°16'0 0.0
2019-Jun-10 04:29N 59°56' E 030°16'0 0.0
2019-Jun-10 03:59N 59°56' E 030°16'0 0.0
2019-Jun-10 03:29N 59°56' E 030°16'0 0.0
2019-Jun-10 02:59N 59°56' E 030°16'0 0.0
2019-Jun-10 02:29N 59°56' E 030°16'0 0.0
2019-Jun-10 01:59N 59°56' E 030°16'0 0.0
2019-Jun-10 01:29N 59°56' E 030°16'0 0.0
2019-Jun-10 00:56N 59°56' E 030°16'0 0.0
2019-Jun-10 00:29N 59°56' E 030°16'0 0.0
2019-Jun-09 23:59N 59°56' E 030°16'0 0.0
2019-Jun-09 23:29N 59°56' E 030°16'0 0.0
2019-Jun-09 22:59N 59°56' E 030°16'0 0.0
2019-Jun-09 22:29N 59°56' E 030°16'0 0.0
2019-Jun-09 21:59N 59°56' E 030°16'0 0.0
2019-Jun-09 21:29N 59°56' E 030°16'0 0.0
2019-Jun-09 20:59N 59°56' E 030°16'0 0.0
2019-Jun-09 20:29N 59°56' E 030°16'0 0.0
2019-Jun-09 19:59N 59°56' E 030°16'0 0.0
2019-Jun-09 19:29N 59°56' E 030°16'0 0.0
2019-Jun-09 18:56N 59°56' E 030°16'0 0.0
2019-Jun-09 18:29N 59°56' E 030°16'0 0.0
2019-Jun-09 17:59N 59°56' E 030°16'0 0.0
2019-Jun-09 17:29N 59°56' E 030°16'0 0.0
2019-Jun-09 16:56N 59°56' E 030°16'0 0.0
2019-Jun-09 16:26N 59°56' E 030°16'0 0.0
2019-Jun-09 15:59N 59°56' E 030°16'0 0.0
2019-Jun-09 15:26N 59°56' E 030°16'0 0.0
2019-Jun-09 14:59N 59°56' E 030°16'0 0.0
2019-Jun-09 14:29N 59°56' E 030°16'0 0.0
2019-Jun-09 13:59N 59°56' E 030°16'0 0.0
2019-Jun-09 13:26N 59°56' E 030°16'0 0.0
2019-Jun-09 12:59N 59°56' E 030°16'0 0.0
2019-Jun-09 12:29N 59°56' E 030°16'0 0.0
2019-Jun-09 11:59N 59°56' E 030°16'0 0.0
2019-Jun-09 11:29N 59°56' E 030°16'0 0.0
2019-Jun-09 10:59N 59°56' E 030°16'0 0.0
2019-Jun-09 10:29N 59°56' E 030°16'0 0.0
2019-Jun-09 09:59N 59°56' E 030°16'0 0.0
2019-Jun-09 09:29N 59°56' E 030°16'0 0.0
2019-Jun-09 08:59N 59°56' E 030°16'0 0.0
2019-Jun-09 08:29N 59°56' E 030°16'0 0.0
2019-Jun-09 07:59N 59°56' E 030°16'0 0.0
2019-Jun-09 07:29N 59°56' E 030°16'0 0.0
2019-Jun-09 06:59N 59°56' E 030°16'0 0.0
2019-Jun-09 06:29N 59°56' E 030°16'0 0.0
2019-Jun-09 05:56N 59°56' E 030°16'0 0.0
2019-Jun-09 05:26N 59°56' E 030°16'0 0.0
2019-Jun-09 04:59N 59°56' E 030°16'0 0.0
2019-Jun-09 03:59N 59°56' E 030°16'0 0.0
2019-Jun-09 03:29N 59°56' E 030°16'0 0.0
2019-Jun-09 02:56N 59°56' E 030°16'0 0.0
2019-Jun-09 02:29N 59°56' E 030°16'0 0.0
2019-Jun-09 01:59N 59°56' E 030°16'0 0.0
2019-Jun-09 01:29N 59°56' E 030°16'0 0.0
2019-Jun-09 00:59N 59°56' E 030°16'0 0.0
2019-Jun-09 00:29N 59°56' E 030°16'0 0.0
2019-Jun-08 23:59N 59°56' E 030°16'0 0.0
2019-Jun-08 23:26N 59°56' E 030°16'0 0.0
2019-Jun-08 22:56N 59°56' E 030°16'0 0.0
2019-Jun-08 22:26N 59°56' E 030°16'0 0.0
2019-Jun-08 21:59N 59°56' E 030°16'0 0.0
2019-Jun-08 21:29N 59°56' E 030°16'0 0.0
2019-Jun-08 20:59N 59°56' E 030°16'0 0.0
2019-Jun-08 20:29N 59°56' E 030°16'0 0.0
2019-Jun-08 19:59N 59°56' E 030°16'0 0.0
2019-Jun-08 19:29N 59°56' E 030°16'0 0.0
2019-Jun-08 18:59N 59°56' E 030°16'0 0.0
2019-Jun-08 18:29N 59°56' E 030°16'0 0.0
2019-Jun-08 17:59N 59°56' E 030°16'0 0.0
2019-Jun-08 17:29N 59°56' E 030°16'0 0.0
2019-Jun-08 16:59N 59°56' E 030°16'0 0.0
2019-Jun-08 16:29N 59°56' E 030°16'0 0.0
2019-Jun-08 15:59N 59°56' E 030°16'0 0.0
2019-Jun-08 15:29N 59°56' E 030°16'0 0.0
2019-Jun-08 14:59N 59°56' E 030°16'0 0.0
2019-Jun-08 14:26N 59°56' E 030°16'0 0.0
2019-Jun-08 13:59N 59°56' E 030°16'0 0.0
2019-Jun-08 13:29N 59°56' E 030°16'0 0.0
2019-Jun-08 12:59N 59°56' E 030°16'0 0.0
2019-Jun-08 12:29N 59°56' E 030°16'0 0.0
2019-Jun-08 11:59N 59°56' E 030°16'0 0.0
2019-Jun-08 11:29N 59°56' E 030°16'0 0.0
2019-Jun-08 10:59N 59°56' E 030°16'0 0.0
2019-Jun-08 10:29N 59°56' E 030°16'0 0.0
2019-Jun-08 09:59N 59°56' E 030°16'0 0.0
2019-Jun-08 09:29N 59°56' E 030°16'0 0.0
2019-Jun-08 08:59N 59°56' E 030°16'0 0.0
2019-Jun-08 08:29N 59°56' E 030°16'0 0.0
2019-Jun-08 07:59N 59°56' E 030°16'0 0.0
2019-Jun-08 07:29N 59°56' E 030°16'0 0.0
2019-Jun-08 06:59N 59°56' E 030°16'0 0.0
2019-Jun-08 06:29N 59°56' E 030°16'0 0.0
2019-Jun-08 05:59N 59°56' E 030°16'0 0.0
2019-Jun-08 05:29N 59°56' E 030°16'0 0.0
2019-Jun-08 04:59N 59°56' E 030°16'0 0.0
2019-Jun-08 04:26N 59°56' E 030°16'0 0.0
2019-Jun-08 03:59N 59°56' E 030°16'0 0.0
2019-Jun-08 03:29N 59°56' E 030°16'0 0.0
2019-Jun-08 02:59N 59°56' E 030°16'0 0.0
2019-Jun-08 02:29N 59°56' E 030°16'0 0.0
2019-Jun-08 01:59N 59°56' E 030°16'0 0.0
2019-Jun-08 01:29N 59°56' E 030°16'0 0.0
2019-Jun-08 00:59N 59°56' E 030°16'0 0.0
2019-Jun-08 00:29N 59°56' E 030°16'0 0.0
2019-Jun-07 23:59N 59°56' E 030°16'0 0.0
2019-Jun-07 23:29N 59°56' E 030°16'0 0.0
2019-Jun-07 22:59N 59°56' E 030°16'0 0.0
2019-Jun-07 22:29N 59°56' E 030°16'0 0.0
2019-Jun-07 21:59N 59°56' E 030°16'0 0.0
2019-Jun-07 21:29N 59°56' E 030°16'0 0.0
2019-Jun-07 20:59N 59°56' E 030°16'0 0.0
2019-Jun-07 20:29N 59°56' E 030°16'0 0.0
2019-Jun-07 19:59N 59°56' E 030°16'0 0.0
2019-Jun-07 19:29N 59°56' E 030°16'0 0.0
2019-Jun-07 18:59N 59°56' E 030°16'0 0.0
2019-Jun-07 18:29N 59°56' E 030°16'0 0.0
2019-Jun-07 17:56N 59°56' E 030°16'0 0.0
2019-Jun-07 17:29N 59°56' E 030°16'0 0.0
2019-Jun-07 16:59N 59°56' E 030°16'0 0.0
2019-Jun-07 16:29N 59°56' E 030°16'0 0.0
2019-Jun-07 15:56N 59°56' E 030°16'0 0.0
2019-Jun-07 15:30N 59°56' E 030°16'1 1.3
2019-Jun-07 15:00N 59°55' E 030°16'3 5.1
2019-Jun-07 14:30N 59°53' E 030°12'3 5.9
2019-Jun-07 14:00N 59°54' E 030°07'5 8.8
2019-Jun-07 13:28N 59°56' E 029°58'5 9.3
2019-Jun-07 12:54N 59°58' E 029°48'14 8.2
2019-Jun-07 11:12N 60°02' E 029°21'1 5.2
2019-Jun-07 11:00N 60°02' E 029°19'3 6.4
2019-Jun-07 10:30N 60°02' E 029°13'2 4.2
2019-Jun-07 10:00N 60°02' E 029°09'1 1.9
2019-Jun-07 09:30N 60°02' E 029°07'1 1.8
2019-Jun-07 09:00N 60°02' E 029°05'1 1.6
2019-Jun-07 08:30N 60°02' E 029°03'1 1.6
2019-Jun-07 08:00N 60°02' E 029°02'1 1.4
2019-Jun-07 07:30N 60°02' E 029°00'2 4.1
2019-Jun-07 07:00N 60°02' E 028°56'2 4.2
2019-Jun-07 06:30N 60°02' E 028°52'2 4.0
2019-Jun-07 06:00N 60°02' E 028°48'2 3.7
2019-Jun-07 05:30N 60°02' E 028°44'2 3.8
2019-Jun-07 05:00N 60°02' E 028°40'2 3.7
2019-Jun-07 04:30N 60°02' E 028°37'2 3.4
2019-Jun-07 04:00N 60°02' E 028°33'2 3.6
2019-Jun-07 03:30N 60°02' E 028°30'2 3.7
2019-Jun-07 03:00N 60°03' E 028°26'2 3.6
2019-Jun-07 02:30N 60°04' E 028°23'2 4.3
2019-Jun-07 02:00N 60°05' E 028°20'2 4.3
2019-Jun-07 01:30N 60°07' E 028°16'2 3.9
2019-Jun-07 01:00N 60°07' E 028°13'2 3.8
2019-Jun-07 00:30N 60°08' E 028°09'2 3.9
2019-Jun-07 00:00N 60°08' E 028°05'2 3.8
2019-Jun-06 23:30N 60°09' E 028°02'2 3.9
2019-Jun-06 23:00N 60°09' E 027°58'2 3.7
2019-Jun-06 22:30N 60°10' E 027°54'2 3.8
2019-Jun-06 22:01N 60°10' E 027°51'2 3.3
2019-Jun-06 21:30N 60°11' E 027°47'2 3.7
2019-Jun-06 21:00N 60°10' E 027°44'2 4.0
2019-Jun-06 20:30N 60°09' E 027°41'2 4.0
2019-Jun-06 20:00N 60°08' E 027°37'2 4.0
2019-Jun-06 19:31N 60°07' E 027°34'2 4.0
2019-Jun-06 19:00N 60°06' E 027°30'2 3.9
2019-Jun-06 18:30N 60°05' E 027°27'2 4.0
2019-Jun-06 18:00N 60°04' E 027°24'2 3.8
2019-Jun-06 17:30N 60°03' E 027°20'2 3.8
2019-Jun-06 17:00N 60°02' E 027°17'2 3.5
2019-Jun-06 16:30N 60°01' E 027°14'2 3.4
2019-Jun-06 16:00N 59°60' E 027°11'2 3.7
2019-Jun-06 15:30N 59°59' E 027°08'2 3.6
2019-Jun-06 15:00N 59°58' E 027°05'2 3.4
2019-Jun-06 14:30N 59°58' E 027°02'2 3.7
2019-Jun-06 14:00N 59°58' E 026°58'2 4.1
2019-Jun-06 13:30N 59°58' E 026°54'2 4.2
2019-Jun-06 13:00N 59°59' E 026°50'2 4.1
2019-Jun-06 12:30N 59°59' E 026°46'2 4.1
2019-Jun-06 12:00N 59°59' E 026°42'2 3.3
2019-Jun-06 11:30N 59°59' E 026°38'2 3.5
2019-Jun-06 11:00N 59°59' E 026°35'2 3.7
2019-Jun-06 10:30N 59°58' E 026°31'2 4.3
2019-Jun-06 10:00N 59°57' E 026°27'2 4.7
2019-Jun-06 09:30N 59°57' E 026°23'2 4.4
2019-Jun-06 09:00N 59°56' E 026°19'2 3.8
2019-Jun-06 08:30N 59°56' E 026°15'2 4.1
2019-Jun-06 08:00N 59°55' E 026°11'3 4.0
2019-Jun-06 07:13N 59°54' E 026°05'1 3.6
2019-Jun-06 07:00N 59°54' E 026°04'2 3.7
2019-Jun-06 06:25N 59°53' E 025°59'3 4.0
2019-Jun-06 05:45N 59°53' E 025°54'2 3.9
2019-Jun-06 05:21N 59°52' E 025°51'1 4.0
2019-Jun-06 05:00N 59°52' E 025°49'2 4.0
2019-Jun-06 04:30N 59°51' E 025°45'5 4.0
2019-Jun-06 03:10N 59°50' E 025°34'1 3.8
2019-Jun-06 02:58N 59°50' E 025°33'2 4.6
2019-Jun-06 02:30N 59°49' E 025°29'2 4.8
2019-Jun-06 02:00N 59°49' E 025°24'2 4.8
2019-Jun-06 01:30N 59°49' E 025°19'2 4.7
2019-Jun-06 01:00N 59°48' E 025°15'12812.8
2019-Jun-06 01:00N 59°42' E 024°54'1020.6 090 / 21020.010.8 15.011.6
2019-Jun-06 00:30N 59°48' E 025°10'2 4.5
2019-Jun-06 00:01N 59°47' E 025°06'2 4.4
2019-Jun-05 23:30N 59°47' E 025°02'2 4.3
2019-Jun-05 23:00N 59°46' E 024°58'2 4.2
2019-Jun-05 22:30N 59°46' E 024°53'2 4.2
2019-Jun-05 22:00N 59°46' E 024°49'2 4.3
2019-Jun-05 21:30N 59°45' E 024°45'2 4.3
2019-Jun-05 21:00N 59°45' E 024°41'2 4.4
2019-Jun-05 20:30N 59°44' E 024°37'2 4.4
2019-Jun-05 20:00N 59°44' E 024°32'2 3.9
2019-Jun-05 19:30N 59°43' E 024°29'2 3.7
2019-Jun-05 19:00N 59°43' E 024°25'2 3.7
2019-Jun-05 18:31N 59°42' E 024°22'2 3.8
2019-Jun-05 18:00N 59°42' E 024°18'2 3.9
2019-Jun-05 17:30N 59°41' E 024°15'2 3.6
2019-Jun-05 17:00N 59°40' E 024°11'2 3.8
2019-Jun-05 16:30N 59°40' E 024°08'2 3.9
2019-Jun-05 15:59N 59°39' E 024°04'2 3.7
2019-Jun-05 15:30N 59°38' E 024°01'2 3.8
2019-Jun-05 15:00N 59°37' E 023°57'2 3.9
2019-Jun-05 14:30N 59°37' E 023°54'2 4.6
2019-Jun-05 14:00N 59°36' E 023°50'3 4.7
2019-Jun-05 13:27N 59°35' E 023°45'2 4.5
2019-Jun-05 13:00N 59°35' E 023°41'3 4.4
2019-Jun-05 12:26N 59°34' E 023°36'8 4.3
2019-Jun-05 10:39N 59°31' E 023°22'1 4.3
2019-Jun-05 10:30N 59°31' E 023°21'2 3.8
2019-Jun-05 09:55N 59°30' E 023°17'3 3.6
2019-Jun-05 09:12N 59°29' E 023°12'1 2.7
2019-Jun-05 09:00N 59°29' E 023°11'1 2.4
2019-Jun-05 08:29N 59°29' E 023°09'1 2.7
2019-Jun-05 07:59N 59°28' E 023°07'1 2.7
2019-Jun-05 07:28N 59°27' E 023°04'1 3.1
2019-Jun-05 07:00N 59°27' E 023°02'2 3.6
2019-Jun-05 06:30N 59°26' E 022°59'2 4.0
2019-Jun-05 06:00N 59°25' E 022°55'2 4.2
2019-Jun-05 05:30N 59°24' E 022°51'3 4.8
2019-Jun-05 04:49N 59°23' E 022°46'2 4.8
2019-Jun-05 04:29N 59°22' E 022°43'2 5.0
2019-Jun-05 04:00N 59°21' E 022°39'3 4.7
2019-Jun-05 03:26N 59°20' E 022°34'1 3.4
2019-Jun-05 03:00N 59°19' E 022°31'2 3.4
2019-Jun-05 02:30N 59°18' E 022°28'4 4.1
2019-Jun-05 01:34N 59°16' E 022°22'2 4.2
2019-Jun-05 00:59N 59°15' E 022°17'2 4.3
2019-Jun-05 00:26N 59°14' E 022°13'120 4.0
2019-Jun-03 18:00N 57°30' E 020°18'103 8.2 190 / 231014.010.8 14.0 9.510.0
2019-Jun-03 05:20N 55°58' E 018°53'6 5.3
2019-Jun-03 04:09N 55°52' E 018°53'4 4.4
2019-Jun-03 03:15N 55°48' E 018°53'1 4.0
2019-Jun-03 02:59N 55°47' E 018°53'  
Track history (hours):
 
Tides and Currents Weather Stations Pressure Air Temp Water Temp Dewpoint Dewpoint Depression Visibility Wind Speed Wind Dir Waves Ship Positions

Alexander von Humboldt II

Ship's website: https://www.alex-2.de/en/

Last reported at 2019-Jun-13 02:41 UTC. Time now 2019-Jun-16 01:33 UTC.
Position N 60°17' E 019°03'.

Length 65 m; draft 4.7 m.

Type: Sailing vessel. MMSI: 218768000.

Date/timePositionNaut miles runAvg speedWind from/ knotsBaromVisibWave heightAir tempDewpointWater temp
2019-Jun-13 02:41N 60°17' E 019°03'2012.0
2019-Jun-13 01:00N 60°00' E 019°24'3 1.5 090 / 91020.010.8 13.5 5.711.0
2019-Jun-12 22:49N 60°03' E 019°21'1 3.8
2019-Jun-12 22:29N 60°02' E 019°23'2 4.0
2019-Jun-12 21:56N 60°00' E 019°26'6 4.4
2019-Jun-12 20:28N 59°55' E 019°34'2 4.2
2019-Jun-12 19:59N 59°54' E 019°36'3 4.5
2019-Jun-12 19:22N 59°51' E 019°40'2 4.9
2019-Jun-12 18:57N 59°50' E 019°42'2 4.8
2019-Jun-12 18:30N 59°48' E 019°45'3 5.4
2019-Jun-12 18:00N 59°46' E 019°49'3 5.3
2019-Jun-12 17:26N 59°45' E 019°54'2 5.4
2019-Jun-12 17:00N 59°43' E 019°57'3 5.0
2019-Jun-12 16:28N 59°41' E 020°02'26 5.6
2019-Jun-12 11:46N 59°36' E 020°52'2 7.4
2019-Jun-12 11:30N 59°36' E 020°56'4 8.3
2019-Jun-12 11:00N 59°35' E 021°04'4 8.3
2019-Jun-12 10:30N 59°35' E 021°12'4 7.8
2019-Jun-12 10:00N 59°34' E 021°20'4 7.2
2019-Jun-12 09:30N 59°33' E 021°27'4 7.4
2019-Jun-12 09:00N 59°33' E 021°34'4 7.5
2019-Jun-12 08:30N 59°33' E 021°41'4 7.9
2019-Jun-12 08:00N 59°32' E 021°49'4 7.3
2019-Jun-12 07:30N 59°32' E 021°56'4 6.8
2019-Jun-12 06:57N 59°33' E 022°04'3 7.2
2019-Jun-12 06:30N 59°33' E 022°10'4 7.1
2019-Jun-12 06:00N 59°34' E 022°17'3 6.4
2019-Jun-12 05:30N 59°35' E 022°23'4 7.1
2019-Jun-12 05:00N 59°35' E 022°30'3 6.7
2019-Jun-12 04:30N 59°36' E 022°36'3 6.9
2019-Jun-12 04:00N 59°36' E 022°43'4 7.3
2019-Jun-12 03:31N 59°37' E 022°50'4 7.5
2019-Jun-12 03:00N 59°38' E 022°57'7 7.5
2019-Jun-12 02:00N 59°39' E 023°12'4 7.6
2019-Jun-12 01:30N 59°40' E 023°19'4 7.2
2019-Jun-12 01:00N 59°40' E 023°26'3 6.9
2019-Jun-12 00:30N 59°41' E 023°33'3 6.6
2019-Jun-12 00:00N 59°42' E 023°39'3 5.5
2019-Jun-11 23:30N 59°43' E 023°45'3 5.6
2019-Jun-11 23:00N 59°43' E 023°50'2 4.6
2019-Jun-11 22:30N 59°44' E 023°54'3 5.2
2019-Jun-11 22:00N 59°45' E 023°59'3 5.0
2019-Jun-11 21:30N 59°45' E 024°04'2 4.7
2019-Jun-11 20:59N 59°46' E 024°09'2 3.9
2019-Jun-11 20:30N 59°46' E 024°13'2 3.6
2019-Jun-11 19:58N 59°47' E 024°16'1 3.1
2019-Jun-11 19:30N 59°47' E 024°19'1 2.3
2019-Jun-11 19:00N 59°48' E 024°21'1 1.7
2019-Jun-11 18:31N 59°48' E 024°23'1 1.6
2019-Jun-11 18:01N 59°48' E 024°24'1 2.2
2019-Jun-11 17:31N 59°48' E 024°26'1 2.6
2019-Jun-11 17:00N 59°49' E 024°29'1 2.6
2019-Jun-11 16:31N 59°49' E 024°31'1 2.6
2019-Jun-11 16:00N 59°49' E 024°34'4 7.9
2019-Jun-11 15:31N 59°50' E 024°42'4 8.3
2019-Jun-11 15:01N 59°51' E 024°50'4 8.3
2019-Jun-11 14:30N 59°52' E 024°58'4 8.3
2019-Jun-11 14:00N 59°53' E 025°06'4 8.4
2019-Jun-11 13:30N 59°53' E 025°14'4 8.5
2019-Jun-11 13:00N 59°54' E 025°23'4 8.5
2019-Jun-11 12:30N 59°55' E 025°31'4 8.4
2019-Jun-11 11:59N 59°55' E 025°40'4 8.3
2019-Jun-11 11:30N 59°56' E 025°47'4 8.3
2019-Jun-11 11:00N 59°57' E 025°55'5 8.3
2019-Jun-11 10:22N 59°58' E 026°06'3 8.2
2019-Jun-11 09:58N 59°59' E 026°12'4 7.9
2019-Jun-11 09:31N 59°60' E 026°19'4 7.8
2019-Jun-11 09:00N 60°01' E 026°27'4 7.6
2019-Jun-11 08:31N 60°02' E 026°34'4 7.6
2019-Jun-11 08:00N 60°01' E 026°42'4 7.8
2019-Jun-11 07:30N 60°01' E 026°49'4 7.8
2019-Jun-11 07:00N 59°60' E 026°57'4 7.7
2019-Jun-11 06:31N 59°60' E 027°05'4 7.3
2019-Jun-11 06:00N 60°02' E 027°11'4 7.3
2019-Jun-11 05:30N 60°03' E 027°17'3 5.2
2019-Jun-11 05:00N 60°05' E 027°21'2 4.5
2019-Jun-11 04:30N 60°06' E 027°25'4 7.5
2019-Jun-11 04:00N 60°08' E 027°32'4 7.4
2019-Jun-11 03:30N 60°10' E 027°38'4 7.4
2019-Jun-11 03:01N 60°12' E 027°44'3 7.0
2019-Jun-11 02:30N 60°11' E 027°51'4 7.3
2019-Jun-11 02:00N 60°11' E 027°58'4 7.1
2019-Jun-11 01:30N 60°10' E 028°05'4 7.0
2019-Jun-11 01:00N 60°09' E 028°12'3 6.7
2019-Jun-11 00:30N 60°08' E 028°18'3 6.8
2019-Jun-11 00:00N 60°05' E 028°24'3 6.8
2019-Jun-10 23:30N 60°04' E 028°29'3 6.7
2019-Jun-10 23:00N 60°03' E 028°36'3 6.6
2019-Jun-10 22:30N 60°03' E 028°43'3 6.2
2019-Jun-10 22:00N 60°03' E 028°49'3 6.3
2019-Jun-10 21:31N 60°03' E 028°55'3 6.5
2019-Jun-10 21:01N 60°02' E 029°02'3 6.5
2019-Jun-10 20:31N 60°02' E 029°08'3 6.4
2019-Jun-10 20:01N 60°02' E 029°15'3 6.5
2019-Jun-10 19:30N 60°02' E 029°21'9 7.0
2019-Jun-10 18:10N 59°60' E 029°39'3 9.8
2019-Jun-10 17:52N 59°59' E 029°45'3 9.5
2019-Jun-10 17:30N 59°57' E 029°51'5 9.6
2019-Jun-10 17:00N 59°55' E 029°60'5 9.4
2019-Jun-10 16:30N 59°54' E 030°08'3 6.0
2019-Jun-10 16:00N 59°55' E 030°14'2 3.3
2019-Jun-10 15:29N 59°56' E 030°16'0 0.0
2019-Jun-10 14:59N 59°56' E 030°16'0 0.0
2019-Jun-10 14:29N 59°56' E 030°16'0 0.0
2019-Jun-10 13:59N 59°56' E 030°16'0 0.0
2019-Jun-10 13:29N 59°56' E 030°16'0 0.0
2019-Jun-10 12:59N 59°56' E 030°16'0 0.0
2019-Jun-10 12:29N 59°56' E 030°16'0 0.0
2019-Jun-10 11:59N 59°56' E 030°16'0 0.0
2019-Jun-10 11:29N 59°56' E 030°16'0 0.0
2019-Jun-10 10:59N 59°56' E 030°16'0 0.0
2019-Jun-10 10:29N 59°56' E 030°16'0 0.0
2019-Jun-10 09:59N 59°56' E 030°16'0 0.0
2019-Jun-10 09:29N 59°56' E 030°16'0 0.0
2019-Jun-10 08:59N 59°56' E 030°16'0 0.0
2019-Jun-10 08:29N 59°56' E 030°16'0 0.0
2019-Jun-10 07:59N 59°56' E 030°16'0 0.0
2019-Jun-10 07:29N 59°56' E 030°16'0 0.0
2019-Jun-10 06:59N 59°56' E 030°16'0 0.0
2019-Jun-10 06:29N 59°56' E 030°16'0 0.0
2019-Jun-10 05:59N 59°56' E 030°16'0 0.0
2019-Jun-10 05:29N 59°56' E 030°16'0 0.0
2019-Jun-10 04:59N 59°56' E 030°16'0 0.0
2019-Jun-10 04:29N 59°56' E 030°16'0 0.0
2019-Jun-10 03:59N 59°56' E 030°16'0 0.0
2019-Jun-10 03:29N 59°56' E 030°16'0 0.0
2019-Jun-10 02:59N 59°56' E 030°16'0 0.0
2019-Jun-10 02:29N 59°56' E 030°16'0 0.0
2019-Jun-10 01:59N 59°56' E 030°16'0 0.0
2019-Jun-10 01:29N 59°56' E 030°16'0 0.0
2019-Jun-10 00:56N 59°56' E 030°16'0 0.0
2019-Jun-10 00:29N 59°56' E 030°16'0 0.0
2019-Jun-09 23:59N 59°56' E 030°16'0 0.0
2019-Jun-09 23:29N 59°56' E 030°16'0 0.0
2019-Jun-09 22:59N 59°56' E 030°16'0 0.0
2019-Jun-09 22:29N 59°56' E 030°16'0 0.0
2019-Jun-09 21:59N 59°56' E 030°16'0 0.0
2019-Jun-09 21:29N 59°56' E 030°16'0 0.0
2019-Jun-09 20:59N 59°56' E 030°16'0 0.0
2019-Jun-09 20:29N 59°56' E 030°16'0 0.0
2019-Jun-09 19:59N 59°56' E 030°16'0 0.0
2019-Jun-09 19:29N 59°56' E 030°16'0 0.0
2019-Jun-09 18:56N 59°56' E 030°16'0 0.0
2019-Jun-09 18:29N 59°56' E 030°16'0 0.0
2019-Jun-09 17:59N 59°56' E 030°16'0 0.0
2019-Jun-09 17:29N 59°56' E 030°16'0 0.0
2019-Jun-09 16:56N 59°56' E 030°16'0 0.0
2019-Jun-09 16:26N 59°56' E 030°16'0 0.0
2019-Jun-09 15:59N 59°56' E 030°16'0 0.0
2019-Jun-09 15:26N 59°56' E 030°16'0 0.0
2019-Jun-09 14:59N 59°56' E 030°16'0 0.0
2019-Jun-09 14:29N 59°56' E 030°16'0 0.0
2019-Jun-09 13:59N 59°56' E 030°16'0 0.0
2019-Jun-09 13:26N 59°56' E 030°16'0 0.0
2019-Jun-09 12:59N 59°56' E 030°16'0 0.0
2019-Jun-09 12:29N 59°56' E 030°16'0 0.0
2019-Jun-09 11:59N 59°56' E 030°16'0 0.0
2019-Jun-09 11:29N 59°56' E 030°16'0 0.0
2019-Jun-09 10:59N 59°56' E 030°16'0 0.0
2019-Jun-09 10:29N 59°56' E 030°16'0 0.0
2019-Jun-09 09:59N 59°56' E 030°16'0 0.0
2019-Jun-09 09:29N 59°56' E 030°16'0 0.0
2019-Jun-09 08:59N 59°56' E 030°16'0 0.0
2019-Jun-09 08:29N 59°56' E 030°16'0 0.0
2019-Jun-09 07:59N 59°56' E 030°16'0 0.0
2019-Jun-09 07:29N 59°56' E 030°16'0 0.0
2019-Jun-09 06:59N 59°56' E 030°16'0 0.0
2019-Jun-09 06:29N 59°56' E 030°16'0 0.0
2019-Jun-09 05:56N 59°56' E 030°16'0 0.0
2019-Jun-09 05:26N 59°56' E 030°16'0 0.0
2019-Jun-09 04:59N 59°56' E 030°16'0 0.0
2019-Jun-09 03:59N 59°56' E 030°16'0 0.0
2019-Jun-09 03:29N 59°56' E 030°16'0 0.0
2019-Jun-09 02:56N 59°56' E 030°16'0 0.0
2019-Jun-09 02:29N 59°56' E 030°16'0 0.0
2019-Jun-09 01:59N 59°56' E 030°16'0 0.0
2019-Jun-09 01:29N 59°56' E 030°16'0 0.0
2019-Jun-09 00:59N 59°56' E 030°16'0 0.0
2019-Jun-09 00:29N 59°56' E 030°16'0 0.0
2019-Jun-08 23:59N 59°56' E 030°16'0 0.0
2019-Jun-08 23:26N 59°56' E 030°16'0 0.0
2019-Jun-08 22:56N 59°56' E 030°16'0 0.0
2019-Jun-08 22:26N 59°56' E 030°16'0 0.0
2019-Jun-08 21:59N 59°56' E 030°16'0 0.0
2019-Jun-08 21:29N 59°56' E 030°16'0 0.0
2019-Jun-08 20:59N 59°56' E 030°16'0 0.0
2019-Jun-08 20:29N 59°56' E 030°16'0 0.0
2019-Jun-08 19:59N 59°56' E 030°16'0 0.0
2019-Jun-08 19:29N 59°56' E 030°16'0 0.0
2019-Jun-08 18:59N 59°56' E 030°16'0 0.0
2019-Jun-08 18:29N 59°56' E 030°16'0 0.0
2019-Jun-08 17:59N 59°56' E 030°16'0 0.0
2019-Jun-08 17:29N 59°56' E 030°16'0 0.0
2019-Jun-08 16:59N 59°56' E 030°16'0 0.0
2019-Jun-08 16:29N 59°56' E 030°16'0 0.0
2019-Jun-08 15:59N 59°56' E 030°16'0 0.0
2019-Jun-08 15:29N 59°56' E 030°16'0 0.0
2019-Jun-08 14:59N 59°56' E 030°16'0 0.0
2019-Jun-08 14:26N 59°56' E 030°16'0 0.0
2019-Jun-08 13:59N 59°56' E 030°16'0 0.0
2019-Jun-08 13:29N 59°56' E 030°16'0 0.0
2019-Jun-08 12:59N 59°56' E 030°16'0 0.0
2019-Jun-08 12:29N 59°56' E 030°16'0 0.0
2019-Jun-08 11:59N 59°56' E 030°16'0 0.0
2019-Jun-08 11:29N 59°56' E 030°16'0 0.0
2019-Jun-08 10:59N 59°56' E 030°16'0 0.0
2019-Jun-08 10:29N 59°56' E 030°16'0 0.0
2019-Jun-08 09:59N 59°56' E 030°16'0 0.0
2019-Jun-08 09:29N 59°56' E 030°16'0 0.0
2019-Jun-08 08:59N 59°56' E 030°16'0 0.0
2019-Jun-08 08:29N 59°56' E 030°16'0 0.0
2019-Jun-08 07:59N 59°56' E 030°16'0 0.0
2019-Jun-08 07:29N 59°56' E 030°16'0 0.0
2019-Jun-08 06:59N 59°56' E 030°16'0 0.0
2019-Jun-08 06:29N 59°56' E 030°16'0 0.0
2019-Jun-08 05:59N 59°56' E 030°16'0 0.0
2019-Jun-08 05:29N 59°56' E 030°16'0 0.0
2019-Jun-08 04:59N 59°56' E 030°16'0 0.0
2019-Jun-08 04:26N 59°56' E 030°16'0 0.0
2019-Jun-08 03:59N 59°56' E 030°16'0 0.0
2019-Jun-08 03:29N 59°56' E 030°16'0 0.0
2019-Jun-08 02:59N 59°56' E 030°16'0 0.0
2019-Jun-08 02:29N 59°56' E 030°16'0 0.0
2019-Jun-08 01:59N 59°56' E 030°16'0 0.0
2019-Jun-08 01:29N 59°56' E 030°16'0 0.0
2019-Jun-08 00:59N 59°56' E 030°16'0 0.0
2019-Jun-08 00:29N 59°56' E 030°16'0 0.0
2019-Jun-07 23:59N 59°56' E 030°16'0 0.0
2019-Jun-07 23:29N 59°56' E 030°16'0 0.0
2019-Jun-07 22:59N 59°56' E 030°16'0 0.0
2019-Jun-07 22:29N 59°56' E 030°16'0 0.0
2019-Jun-07 21:59N 59°56' E 030°16'0 0.0
2019-Jun-07 21:29N 59°56' E 030°16'0 0.0
2019-Jun-07 20:59N 59°56' E 030°16'0 0.0
2019-Jun-07 20:29N 59°56' E 030°16'0 0.0
2019-Jun-07 19:59N 59°56' E 030°16'0 0.0
2019-Jun-07 19:29N 59°56' E 030°16'0 0.0
2019-Jun-07 18:59N 59°56' E 030°16'0 0.0
2019-Jun-07 18:29N 59°56' E 030°16'0 0.0
2019-Jun-07 17:56N 59°56' E 030°16'0 0.0
2019-Jun-07 17:29N 59°56' E 030°16'0 0.0
2019-Jun-07 16:59N 59°56' E 030°16'0 0.0
2019-Jun-07 16:29N 59°56' E 030°16'0 0.0
2019-Jun-07 15:56N 59°56' E 030°16'0 0.0
2019-Jun-07 15:30N 59°56' E 030°16'1 1.3
2019-Jun-07 15:00N 59°55' E 030°16'3 5.1
2019-Jun-07 14:30N 59°53' E 030°12'3 5.9
2019-Jun-07 14:00N 59°54' E 030°07'5 8.8
2019-Jun-07 13:28N 59°56' E 029°58'5 9.3
2019-Jun-07 12:54N 59°58' E 029°48'14 8.2
2019-Jun-07 11:12N 60°02' E 029°21'1 5.2
2019-Jun-07 11:00N 60°02' E 029°19'3 6.4
2019-Jun-07 10:30N 60°02' E 029°13'2 4.2
2019-Jun-07 10:00N 60°02' E 029°09'1 1.9
2019-Jun-07 09:30N 60°02' E 029°07'1 1.8
2019-Jun-07 09:00N 60°02' E 029°05'1 1.6
2019-Jun-07 08:30N 60°02' E 029°03'1 1.6
2019-Jun-07 08:00N 60°02' E 029°02'1 1.4
2019-Jun-07 07:30N 60°02' E 029°00'2 4.1
2019-Jun-07 07:00N 60°02' E 028°56'2 4.2
2019-Jun-07 06:30N 60°02' E 028°52'2 4.0
2019-Jun-07 06:00N 60°02' E 028°48'2 3.7
2019-Jun-07 05:30N 60°02' E 028°44'2 3.8
2019-Jun-07 05:00N 60°02' E 028°40'2 3.7
2019-Jun-07 04:30N 60°02' E 028°37'2 3.4
2019-Jun-07 04:00N 60°02' E 028°33'2 3.6
2019-Jun-07 03:30N 60°02' E 028°30'2 3.7
2019-Jun-07 03:00N 60°03' E 028°26'2 3.6
2019-Jun-07 02:30N 60°04' E 028°23'2 4.3
2019-Jun-07 02:00N 60°05' E 028°20'2 4.3
2019-Jun-07 01:30N 60°07' E 028°16'2 3.9
2019-Jun-07 01:00N 60°07' E 028°13'2 3.8
2019-Jun-07 00:30N 60°08' E 028°09'2 3.9
2019-Jun-07 00:00N 60°08' E 028°05'2 3.8
2019-Jun-06 23:30N 60°09' E 028°02'2 3.9
2019-Jun-06 23:00N 60°09' E 027°58'2 3.7
2019-Jun-06 22:30N 60°10' E 027°54'2 3.8
2019-Jun-06 22:01N 60°10' E 027°51'2 3.3
2019-Jun-06 21:30N 60°11' E 027°47'2 3.7
2019-Jun-06 21:00N 60°10' E 027°44'2 4.0
2019-Jun-06 20:30N 60°09' E 027°41'2 4.0
2019-Jun-06 20:00N 60°08' E 027°37'2 4.0
2019-Jun-06 19:31N 60°07' E 027°34'2 4.0
2019-Jun-06 19:00N 60°06' E 027°30'2 3.9
2019-Jun-06 18:30N 60°05' E 027°27'2 4.0
2019-Jun-06 18:00N 60°04' E 027°24'2 3.8
2019-Jun-06 17:30N 60°03' E 027°20'2 3.8
2019-Jun-06 17:00N 60°02' E 027°17'2 3.5
2019-Jun-06 16:30N 60°01' E 027°14'2 3.4
2019-Jun-06 16:00N 59°60' E 027°11'2 3.7
2019-Jun-06 15:30N 59°59' E 027°08'2 3.6
2019-Jun-06 15:00N 59°58' E 027°05'2 3.4
2019-Jun-06 14:30N 59°58' E 027°02'2 3.7
2019-Jun-06 14:00N 59°58' E 026°58'2 4.1
2019-Jun-06 13:30N 59°58' E 026°54'2 4.2
2019-Jun-06 13:00N 59°59' E 026°50'2 4.1
2019-Jun-06 12:30N 59°59' E 026°46'2 4.1
2019-Jun-06 12:00N 59°59' E 026°42'2 3.3
2019-Jun-06 11:30N 59°59' E 026°38'2 3.5
2019-Jun-06 11:00N 59°59' E 026°35'2 3.7
2019-Jun-06 10:30N 59°58' E 026°31'2 4.3
2019-Jun-06 10:00N 59°57' E 026°27'2 4.7
2019-Jun-06 09:30N 59°57' E 026°23'2 4.4
2019-Jun-06 09:00N 59°56' E 026°19'2 3.8
2019-Jun-06 08:30N 59°56' E 026°15'2 4.1
2019-Jun-06 08:00N 59°55' E 026°11'3 4.0
2019-Jun-06 07:13N 59°54' E 026°05'1 3.6
2019-Jun-06 07:00N 59°54' E 026°04'2 3.7
2019-Jun-06 06:25N 59°53' E 025°59'3 4.0
2019-Jun-06 05:45N 59°53' E 025°54'2 3.9
2019-Jun-06 05:21N 59°52' E 025°51'1 4.0
2019-Jun-06 05:00N 59°52' E 025°49'2 4.0
2019-Jun-06 04:30N 59°51' E 025°45'5 4.0
2019-Jun-06 03:10N 59°50' E 025°34'1 3.8
2019-Jun-06 02:58N 59°50' E 025°33'2 4.6
2019-Jun-06 02:30N 59°49' E 025°29'2 4.8
2019-Jun-06 02:00N 59°49' E 025°24'2 4.8
2019-Jun-06 01:30N 59°49' E 025°19'2 4.7
2019-Jun-06 01:00N 59°48' E 025°15'12812.8
2019-Jun-06 01:00N 59°42' E 024°54'1020.6 090 / 21020.010.8 15.011.6
2019-Jun-06 00:30N 59°48' E 025°10'2 4.5
2019-Jun-06 00:01N 59°47' E 025°06'2 4.4
2019-Jun-05 23:30N 59°47' E 025°02'2 4.3
2019-Jun-05 23:00N 59°46' E 024°58'2 4.2
2019-Jun-05 22:30N 59°46' E 024°53'2 4.2
2019-Jun-05 22:00N 59°46' E 024°49'2 4.3
2019-Jun-05 21:30N 59°45' E 024°45'2 4.3
2019-Jun-05 21:00N 59°45' E 024°41'2 4.4
2019-Jun-05 20:30N 59°44' E 024°37'2 4.4
2019-Jun-05 20:00N 59°44' E 024°32'2 3.9
2019-Jun-05 19:30N 59°43' E 024°29'2 3.7
2019-Jun-05 19:00N 59°43' E 024°25'2 3.7
2019-Jun-05 18:31N 59°42' E 024°22'2 3.8
2019-Jun-05 18:00N 59°42' E 024°18'2 3.9
2019-Jun-05 17:30N 59°41' E 024°15'2 3.6
2019-Jun-05 17:00N 59°40' E 024°11'2 3.8
2019-Jun-05 16:30N 59°40' E 024°08'2 3.9
2019-Jun-05 15:59N 59°39' E 024°04'2 3.7
2019-Jun-05 15:30N 59°38' E 024°01'2 3.8
2019-Jun-05 15:00N 59°37' E 023°57'2 3.9
2019-Jun-05 14:30N 59°37' E 023°54'2 4.6
2019-Jun-05 14:00N 59°36' E 023°50'3 4.7
2019-Jun-05 13:27N 59°35' E 023°45'2 4.5
2019-Jun-05 13:00N 59°35' E 023°41'3 4.4
2019-Jun-05 12:26N 59°34' E 023°36'8 4.3
2019-Jun-05 10:39N 59°31' E 023°22'1 4.3
2019-Jun-05 10:30N 59°31' E 023°21'2 3.8
2019-Jun-05 09:55N 59°30' E 023°17'3 3.6
2019-Jun-05 09:12N 59°29' E 023°12'1 2.7
2019-Jun-05 09:00N 59°29' E 023°11'1 2.4
2019-Jun-05 08:29N 59°29' E 023°09'1 2.7
2019-Jun-05 07:59N 59°28' E 023°07'1 2.7
2019-Jun-05 07:28N 59°27' E 023°04'1 3.1
2019-Jun-05 07:00N 59°27' E 023°02'2 3.6
2019-Jun-05 06:30N 59°26' E 022°59'2 4.0
2019-Jun-05 06:00N 59°25' E 022°55'2 4.2
2019-Jun-05 05:30N 59°24' E 022°51'3 4.8
2019-Jun-05 04:49N 59°23' E 022°46'2 4.8
2019-Jun-05 04:29N 59°22' E 022°43'2 5.0
2019-Jun-05 04:00N 59°21' E 022°39'3 4.7
2019-Jun-05 03:26N 59°20' E 022°34'1 3.4
2019-Jun-05 03:00N 59°19' E 022°31'2 3.4
2019-Jun-05 02:30N 59°18' E 022°28'4 4.1
2019-Jun-05 01:34N 59°16' E 022°22'2 4.2
2019-Jun-05 00:59N 59°15' E 022°17'2 4.3
2019-Jun-05 00:26N 59°14' E 022°13'120 4.0
2019-Jun-03 18:00N 57°30' E 020°18'103 8.2 190 / 231014.010.8 14.0 9.510.0
2019-Jun-03 05:20N 55°58' E 018°53'6 5.3
2019-Jun-03 04:09N 55°52' E 018°53'4 4.4
2019-Jun-03 03:15N 55°48' E 018°53'1 4.0
2019-Jun-03 02:59N 55°47' E 018°53'  

Dump ship's entire track history